Flight Track Log - Related Links

Times and Time Zones

All times are in EST time to prevent confusion due to time zone crossing. See the CEY501 flight status page for this flight to view local times or setup timezone preferences in your user account.

Time Position Orientation Groundspeed Altitude Reporting Facility
EST Latitude Longitude Course Direction KTS MPH feet Rate Location/Type
Tue 10:39:14 AM 18.4500 -65.9667 317° Northwest 130 150 900  Level San Juan Center
Tue 10:40:14 AM 18.4833 -66.0000 317° Northwest 170 196 2,200 1,388 Climbing San Juan Center
Tue 10:41:15 AM 18.4667 -66.0333 242° Southwest 170 196 3,700 1,400 Climbing San Juan Center
Tue 10:42:14 AM 18.4167 -66.0500 198° South 170 196 5,000 1,250 Climbing San Juan Center
Tue 10:43:15 AM 18.3667 -66.0667 198° South 170 196 6,200 1,140 Climbing San Juan Center
Tue 10:44:15 AM 18.3333 -66.1000 224° Southwest 190 219 7,300 1,000 Climbing San Juan Center
Tue 10:45:15 AM 18.2833 -66.1167 198° South 190 219 8,200 950 Climbing San Juan Center
Tue 10:46:15 AM 18.2333 -66.1167 180° South 190 219 9,200 900 Climbing San Juan Center
Tue 10:47:15 AM 18.1667 -66.1333 193° South 200 230 10,000 800 Climbing San Juan Center
Tue 10:48:15 AM 18.1167 -66.1500 198° South 200 230 10,800 800 Climbing San Juan Center
Tue 10:49:15 AM 18.0667 -66.1667 198° South 200 230 11,600 694 Climbing San Juan Center
Tue 10:50:16 AM 18.0167 -66.1667 180° South 190 219 12,200 645 Climbing San Juan Center
Tue 10:51:16 AM 17.9667 -66.1833 198° South 210 242 12,900 650 Climbing San Juan Center
Tue 10:52:16 AM 17.9000 -66.1833 180° South 200 230 13,500 650 Climbing San Juan Center
Tue 10:53:16 AM 17.8500 -66.2000 198° South 210 242 14,200 600 Climbing San Juan Center
Tue 10:54:16 AM 17.8000 -66.2000 180° South 210 242 14,700 400 Climbing San Juan Center
Tue 10:55:16 AM 17.7333 -66.2167 193° South 210 242 15,000 400 Climbing San Juan Center
Tue 10:56:16 AM 17.6667 -66.2167 180° South 220 253 15,500 550 Climbing San Juan Center
Tue 10:57:16 AM 17.6167 -66.2333 198° South 210 242 16,100 545 Climbing San Juan Center
Tue 10:58:17 AM 17.5500 -66.2333 180° South 210 242 16,600 496 Climbing San Juan Center
Tue 10:59:17 AM 17.5000 -66.2500 198° South 210 242 17,100 450 Climbing San Juan Center
Tue 11:00:17 AM 17.4333 -66.2500 180° South 200 230 17,500 450 Climbing San Juan Center
Tue 11:01:17 AM 17.3833 -66.2667 198° South 210 242 18,000 250 Climbing San Juan Center
Tue 11:02:17 AM 17.3167 -66.2833 193° South 210 242 18,000  Level San Juan Center
Tue 11:03:17 AM 17.2667 -66.2833 180° South 240 276 18,000  Level San Juan Center
Tue 11:04:17 AM 17.2000 -66.3000 193° South 250 288 18,000  Level San Juan Center
Tue 11:05:18 AM 17.1333 -66.3167 193° South 230 265 18,000  Level San Juan Center
Tue 11:06:18 AM 17.0667 -66.3333 193° South 240 276 18,000  Level San Juan Center
Tue 11:08:00 AM 16.9784 -66.3518 191° South  Level FlightAware Approximate
Tue 11:15:00 AM 16.6151 -66.4276 191° South  Level FlightAware Approximate
Tue 11:16:00 AM 16.5632 -66.4384 191° South  Level FlightAware Approximate
Tue 11:17:00 AM 16.5113 -66.4492 191° South  Level FlightAware Approximate
Tue 11:18:00 AM 16.4594 -66.4600 191° South  Level FlightAware Approximate
Tue 11:32:00 AM 15.7062 -66.6064 185° South  Level FlightAware Approximate
Tue 11:33:00 AM 15.6515 -66.6110 185° South  Level FlightAware Approximate
Tue 11:34:00 AM 15.5968 -66.6155 185° South  Level FlightAware Approximate
Tue 11:35:00 AM 15.5457 -66.6333 180° South  Level FlightAware Approximate
Tue 11:36:00 AM 15.4908 -66.6347 182° South  Level FlightAware Approximate
Tue 11:37:00 AM 15.4360 -66.6363 182° South  Level FlightAware Approximate
Tue 11:38:00 AM 15.3812 -66.6380 182° South  Level FlightAware Approximate
Tue 11:39:00 AM 15.3263 -66.6397 182° South  Level FlightAware Approximate
Tue 11:40:00 AM 15.2715 -66.6414 182° South  Level FlightAware Approximate
Tue 11:41:00 AM 15.2167 -66.6431 182° South  Level FlightAware Approximate
Tue 11:42:00 AM 15.1618 -66.6448 182° South  Level FlightAware Approximate
Tue 11:43:00 AM 15.1070 -66.6465 182° South  Level FlightAware Approximate
Tue 11:44:00 AM 15.0522 -66.6482 182° South  Level FlightAware Approximate
Tue 11:45:00 AM 14.9974 -66.6499 182° South  Level FlightAware Approximate
Tue 11:46:00 AM 14.9425 -66.6516 182° South  Level FlightAware Approximate
Tue 11:47:00 AM 14.8877 -66.6532 182° South  Level FlightAware Approximate
Tue 11:48:00 AM 14.8329 -66.6549 182° South  Level FlightAware Approximate
Tue 11:49:00 AM 14.7780 -66.6566 182° South  Level FlightAware Approximate
Tue 11:50:00 AM 14.7232 -66.6583 182° South  Level FlightAware Approximate
Tue 11:51:00 AM 14.6684 -66.6600 182° South  Level FlightAware Approximate
Tue 11:52:00 AM 14.6136 -66.6617 182° South  Level FlightAware Approximate
Tue 11:53:00 AM 14.5587 -66.6633 182° South  Level FlightAware Approximate
Tue 11:54:00 AM 14.5039 -66.6650 182° South  Level FlightAware Approximate
Tue 11:55:00 AM 14.4490 -66.6667 180° South  Level FlightAware Approximate
Tue 11:56:00 AM 14.3942 -66.6667 180° South  Level FlightAware Approximate
Tue 11:57:00 AM 14.3393 -66.6667 180° South  Level FlightAware Approximate
Tue 11:58:00 AM 14.2845 -66.6667 180° South  Level FlightAware Approximate
Tue 11:59:00 AM 14.2296 -66.6667 180° South  Level FlightAware Approximate
Tue 12:00:00 PM 14.1748 -66.6667 180° South  Level FlightAware Approximate
Tue 12:01:00 PM 14.1200 -66.6667 180° South  Level FlightAware Approximate
Tue 12:02:00 PM 14.0651 -66.6667 180° South  Level FlightAware Approximate
Tue 12:03:00 PM 14.0103 -66.6667 180° South  Level FlightAware Approximate
Tue 12:04:00 PM 13.9554 -66.6667 180° South  Level FlightAware Approximate
Tue 12:05:00 PM 13.9005 -66.6667 180° South  Level FlightAware Approximate
Tue 12:06:00 PM 13.8457 -66.6667 180° South  Level FlightAware Approximate
Tue 12:07:00 PM 13.7908 -66.6667 180° South  Level FlightAware Approximate
Tue 12:08:00 PM 13.7360 -66.6667 180° South  Level FlightAware Approximate
Tue 12:09:00 PM 13.6812 -66.6667 180° South  Level FlightAware Approximate
Tue 12:10:00 PM 13.6263 -66.6667 180° South  Level FlightAware Approximate
Tue 12:11:00 PM 13.5715 -66.6667 180° South  Level FlightAware Approximate
Tue 12:12:00 PM 13.5166 -66.6667 180° South  Level FlightAware Approximate
Tue 12:13:00 PM 13.4618 -66.6667 180° South  Level FlightAware Approximate
Tue 12:14:00 PM 13.4069 -66.6667 180° South  Level FlightAware Approximate
Tue 12:15:00 PM 13.3520 -66.6667 180° South  Level FlightAware Approximate
Tue 12:16:00 PM 13.2972 -66.6667 180° South  Level FlightAware Approximate
Tue 12:17:00 PM 13.2423 -66.6667 180° South  Level FlightAware Approximate
Tue 12:18:00 PM 13.1875 -66.6667 180° South  Level FlightAware Approximate
Tue 12:19:00 PM 13.1327 -66.6667 180° South  Level FlightAware Approximate
Tue 12:20:00 PM 13.0778 -66.6667 180° South  Level FlightAware Approximate
Tue 12:21:00 PM 13.0230 -66.6667 180° South  Level FlightAware Approximate
Tue 12:22:00 PM 12.9681 -66.6667 180° South  Level FlightAware Approximate
Tue 12:23:00 PM 12.9132 -66.6667 180° South  Level FlightAware Approximate
Tue 12:24:00 PM 12.8584 -66.6667 180° South  Level FlightAware Approximate
Tue 12:25:00 PM 12.8035 -66.6667 180° South  Level FlightAware Approximate
Tue 12:26:00 PM 12.7487 -66.6667 180° South  Level FlightAware Approximate
Tue 12:27:00 PM 12.6938 -66.6667 180° South  Level FlightAware Approximate
Tue 12:28:00 PM 12.6390 -66.6667 180° South  Level FlightAware Approximate
Tue 12:29:00 PM 12.5842 -66.6667 180° South  Level FlightAware Approximate
Tue 12:30:00 PM 12.5293 -66.6667 180° South  Level FlightAware Approximate
Tue 12:31:00 PM 12.4745 -66.6667 180° South  Level FlightAware Approximate
Tue 12:32:00 PM 12.4196 -66.6667 180° South  Level FlightAware Approximate
Tue 12:33:00 PM 12.3647 -66.6667 180° South  Level FlightAware Approximate
Tue 12:34:00 PM 12.3099 -66.6667 180° South  Level FlightAware Approximate
Tue 12:35:00 PM 12.2550 -66.6667 180° South  Level FlightAware Approximate
Tue 12:36:00 PM 12.2002 -66.6667 180° South  Level FlightAware Approximate
Tue 12:37:00 PM 12.1454 -66.6667 180° South  Level FlightAware Approximate
Tue 12:38:00 PM 12.0905 -66.6667 180° South  Level FlightAware Approximate
Tue 12:39:00 PM 12.0357 -66.6667 180° South  Level FlightAware Approximate
Tue 12:40:00 PM 11.9808 -66.6667 180° South  Level FlightAware Approximate
Tue 12:41:00 PM 11.9259 -66.6685 194° South  Level FlightAware Approximate
Tue 12:42:00 PM 11.8727 -66.6818 194° South  Level FlightAware Approximate
Tue 12:43:00 PM 11.8194 -66.6952 194° South  Level FlightAware Approximate
Tue 12:44:00 PM 11.7661 -66.7085 194° South  Level FlightAware Approximate
Tue 12:45:00 PM 11.7128 -66.7218 194° South  Level FlightAware Approximate
Tue 12:46:00 PM 11.6595 -66.7349 192° South  Level FlightAware Approximate
Tue 12:47:00 PM 11.6059 -66.7468 192° South  Level FlightAware Approximate
Tue 12:48:00 PM 11.5523 -66.7588 192° South  Level FlightAware Approximate
Tue 12:49:00 PM 11.4987 -66.7707 192° South  Level FlightAware Approximate
Tue 12:50:00 PM 11.4451 -66.7826 192° South  Level FlightAware Approximate
Tue 12:51:00 PM 11.3915 -66.7945 192° South  Level FlightAware Approximate
Tue 12:52:00 PM 11.3378 -66.8058 191° South  Level FlightAware Approximate
Tue 12:53:00 PM 11.2839 -66.8166 191° South  Level FlightAware Approximate
Tue 12:54:00 PM 11.2301 -66.8273 191° South  Level FlightAware Approximate
Tue 12:55:00 PM 11.1767 -66.8400 196° South  Level FlightAware Approximate
Tue 12:56:00 PM 11.1239 -66.8551 196° South  Level FlightAware Approximate
Tue 12:57:00 PM 11.0709 -66.8692 191° South  Level FlightAware Approximate
Tue 12:58:00 PM 11.0170 -66.8799 191° South  Level FlightAware Approximate
Tue 12:59:00 PM 10.9639 -66.8936 196° South  Level FlightAware Approximate
Tue 01:00:00 PM 10.9111 -66.9087 196° South  Level FlightAware Approximate
Tue 01:01:00 PM 10.8573 -66.9167 180° South  Level FlightAware Approximate
Tue 01:02:00 PM 10.8191 -66.9362 191° South  Level FlightAware Approximate
Tue 01:03:00 PM 10.7653 -66.9470 191° South  Level FlightAware Approximate
Tue 01:04:00 PM 10.7114 -66.9577 191° South  Level FlightAware Approximate
Tue 01:05:00 PM 10.6577 -66.9689 194° South  Level FlightAware Approximate
Tue 01:06:00 PM 10.6044 -66.9822 194° South  Level FlightAware Approximate
Tue 01:07:00 PM 10.6031 -66.9906 90° East  Level Estimated
Tue 01:08:00 PM 10.6031 -66.9906 90° East  Level Estimated
Tue 01:09:00 PM 10.6031 -66.9906 90° East  Level Estimated
Tue 01:10:00 PM 10.6031 -66.9906 90° East  Level Estimated
Tue 01:11:00 PM 10.6031 -66.9906 90° East  Level Estimated
Tue 01:12:00 PM 10.6031 -66.9906 90° East  Level Estimated
Tue 01:13:00 PM 10.6031 -66.9906 90° East  Level Estimated
Tue 01:14:00 PM 10.6031 -66.9906 90° East  Level Estimated
Tue 01:15:00 PM 10.6031 -66.9906 90° East  Level Estimated
Tue 01:16:00 PM 10.6031 -66.9906 90° East  Level Estimated
Tue 01:17:00 PM 10.6031 -66.9906 90° East  Level Estimated
Tue 01:18:00 PM 10.6031 -66.9906 90° East  Level Estimated
Tue 01:19:00 PM 10.6031 -66.9906 90° East  Level Estimated

Login

Don't have an account? Register now (free) for customized features, flight alerts, and more!